createdAt,value
2018-10-03T00:00:08.903Z,5.69
2018-10-03T00:01:18.667Z,5.64
2018-10-03T00:02:28.437Z,5.69
2018-10-03T00:03:37.929Z,5.67
2018-10-03T00:04:47.691Z,5.72
2018-10-03T00:05:57.457Z,5.74
2018-10-03T00:07:07.228Z,5.79
2018-10-03T00:08:16.989Z,5.73
2018-10-03T00:09:27.074Z,5.76
2018-10-03T00:10:36.843Z,5.79
2018-10-03T00:11:46.333Z,5.7
2018-10-03T00:12:56.092Z,5.7
2018-10-03T00:14:06.123Z,5.79
2018-10-03T00:15:16.203Z,5.72
2018-10-03T00:16:26.231Z,5.74
2018-10-03T00:17:35.726Z,5.79
2018-10-03T00:18:45.496Z,5.73
2018-10-03T00:19:55.263Z,5.76
2018-10-03T00:21:05.081Z,5.8
2018-10-03T00:22:15.118Z,5.8
2018-10-03T00:23:25.183Z,5.77
2018-10-03T00:24:35.357Z,5.84
2018-10-03T00:25:45.391Z,5.77
2018-10-03T00:26:55.428Z,5.83
2018-10-03T00:28:05.502Z,5.8
2018-10-03T00:29:14.992Z,5.77
2018-10-03T00:30:24.486Z,5.77
2018-10-03T00:31:34.248Z,5.7
2018-10-03T00:32:44.282Z,5.77
2018-10-03T00:33:54.313Z,5.83
2018-10-03T00:35:03.802Z,5.8
2018-10-03T00:36:13.840Z,5.76
2018-10-03T00:37:23.606Z,5.72
2018-10-03T00:38:33.682Z,5.79
2018-10-03T00:39:43.717Z,5.87
2018-10-03T00:40:53.750Z,5.83
2018-10-03T00:42:03.527Z,5.8
2018-10-03T00:43:13.289Z,5.87
2018-10-03T00:44:23.051Z,5.81
2018-10-03T00:45:32.810Z,5.8
2018-10-03T00:46:42.839Z,5.69
2018-10-03T00:47:52.868Z,5.72
2018-10-03T00:49:02.628Z,5.8
2018-10-03T00:50:12.123Z,5.74
2018-10-03T00:51:22.148Z,5.72
2018-10-03T00:52:31.371Z,5.76
2018-10-03T00:53:41.145Z,5.84
2018-10-03T00:54:50.904Z,5.79
2018-10-03T00:56:00.980Z,5.69
2018-10-03T00:57:10.742Z,5.67
2018-10-03T00:58:20.236Z,5.59
2018-10-03T00:59:30.266Z,5.7
2018-10-03T01:00:40.298Z,5.77
2018-10-03T01:01:50.056Z,5.65
2018-10-03T01:02:59.820Z,5.67
2018-10-03T01:04:09.854Z,5.64
2018-10-03T01:05:19.884Z,5.69
2018-10-03T01:06:29.914Z,5.62
2018-10-03T01:07:41.679Z,5.55
2018-10-03T01:08:51.705Z,5.58
2018-10-03T01:10:01.196Z,5.65
2018-10-03T01:11:10.973Z,5.54
2018-10-03T01:12:20.465Z,5.54
2018-10-03T01:13:30.222Z,5.51
2018-10-03T01:14:40.251Z,5.49
2018-10-03T01:15:50.318Z,5.43
2018-10-03T01:17:00.105Z,5.46
2018-10-03T01:18:10.144Z,5.43
2018-10-03T01:19:19.422Z,5.43
2018-10-03T01:20:29.179Z,5.38
2018-10-03T01:21:39.214Z,5.38
2018-10-03T01:22:49.250Z,5.36
2018-10-03T01:23:59.284Z,5.37
2018-10-03T01:25:09.074Z,5.46
2018-10-03T01:26:19.114Z,5.47
2018-10-03T01:27:28.883Z,5.4
2018-10-03T01:28:38.915Z,5.46
2018-10-03T01:29:48.944Z,5.43
2018-10-03T01:30:58.975Z,5.4
2018-10-03T01:32:09.011Z,5.38
2018-10-03T01:33:18.497Z,5.4
2018-10-03T01:34:28.531Z,5.37
2018-10-03T01:35:37.773Z,5.28
2018-10-03T01:36:46.993Z,5.26
2018-10-03T01:37:56.753Z,5.37
2018-10-03T01:39:06.529Z,5.34
2018-10-03T01:40:16.566Z,5.36
2018-10-03T01:41:26.328Z,5.33
2018-10-03T01:42:36.096Z,5.28
2018-10-03T01:43:46.131Z,5.2
2018-10-03T01:44:55.668Z,5.22
2018-10-03T01:46:05.436Z,5.18
2018-10-03T01:47:15.470Z,5.12
2018-10-03T01:48:25.228Z,5.08
2018-10-03T01:49:34.993Z,5.07
2018-10-03T01:50:44.750Z,5.04
2018-10-03T01:51:54.240Z,5.01
2018-10-03T01:53:04.002Z,4.97
2018-10-03T01:54:13.767Z,5.05
2018-10-03T01:55:23.809Z,4.98
2018-10-03T01:56:33.837Z,5.02
2018-10-03T01:57:43.917Z,4.98
2018-10-03T01:58:53.961Z,4.92
2018-10-03T02:00:04.001Z,4.87
2018-10-03T02:01:13.782Z,4.79
2018-10-03T02:02:23.009Z,4.79
2018-10-03T02:03:33.030Z,4.78
2018-10-03T02:04:43.060Z,4.68
2018-10-03T02:05:53.085Z,4.66
2018-10-03T02:07:02.578Z,4.63
2018-10-03T02:08:12.333Z,4.61
2018-10-03T02:09:22.107Z,4.49
2018-10-03T02:10:31.601Z,4.43
2018-10-03T02:11:41.637Z,4.56
2018-10-03T02:12:51.659Z,4.38
2018-10-03T02:14:01.425Z,4.52
2018-10-03T02:15:11.190Z,4.42
2018-10-03T02:16:21.232Z,4.4
2018-10-03T02:17:31.264Z,4.43
2018-10-03T02:18:41.293Z,4.43
2018-10-03T02:19:51.328Z,4.4
2018-10-03T02:21:01.095Z,4.42
2018-10-03T02:22:11.127Z,4.42
2018-10-03T02:23:20.885Z,4.5
2018-10-03T02:24:30.379Z,4.42
2018-10-03T02:25:40.406Z,4.53
2018-10-03T02:26:50.437Z,4.45
2018-10-03T02:28:00.198Z,4.34
2018-10-03T02:29:09.964Z,4.39
2018-10-03T02:30:20.002Z,4.3
2018-10-03T02:31:29.766Z,4.27
2018-10-03T02:32:39.800Z,4.27
2018-10-03T02:33:49.832Z,4.38
2018-10-03T02:34:59.868Z,4.28
2018-10-03T02:36:09.631Z,4.36
2018-10-03T02:37:19.664Z,4.48
2018-10-03T02:38:29.421Z,4.42
2018-10-03T02:39:39.200Z,4.48
2018-10-03T02:40:48.695Z,4.43
2018-10-03T02:41:58.755Z,4.45
2018-10-03T02:43:08.252Z,4.4
2018-10-03T02:44:18.012Z,4.42
2018-10-03T02:45:27.774Z,4.45
2018-10-03T02:46:37.810Z,4.48
2018-10-03T02:47:47.844Z,4.5
2018-10-03T02:48:57.878Z,4.5
2018-10-03T02:50:07.376Z,4.39
2018-10-03T02:51:16.876Z,4.58
2018-10-03T02:52:26.659Z,4.5
2018-10-03T02:53:36.430Z,4.56
2018-10-03T02:54:46.206Z,4.53
2018-10-03T02:55:55.971Z,4.57
2018-10-03T02:57:05.746Z,4.5
2018-10-03T02:58:15.778Z,4.46
2018-10-03T02:59:25.810Z,4.46
2018-10-03T03:00:35.303Z,4.4
2018-10-03T03:01:45.400Z,4.56
2018-10-03T03:02:55.856Z,4.57
2018-10-03T03:04:05.884Z,4.48
2018-10-03T03:05:15.969Z,4.43
2018-10-03T03:06:25.997Z,4.43
2018-10-03T03:07:35.795Z,4.42
2018-10-03T03:08:46.104Z,4.43
2018-10-03T03:09:56.444Z,4.32
2018-10-03T03:11:06.491Z,4.43
2018-10-03T03:12:16.520Z,4.32
2018-10-03T03:13:26.292Z,4.43
2018-10-03T03:14:36.327Z,4.38
2018-10-03T03:15:46.091Z,4.36
2018-10-03T03:16:56.115Z,4.36
2018-10-03T03:18:05.879Z,4.45
2018-10-03T03:19:15.639Z,4.38
2018-10-03T03:20:25.422Z,4.39
2018-10-03T03:21:34.937Z,4.45
2018-10-03T03:22:44.971Z,4.5
2018-10-03T03:23:54.193Z,4.43
2018-10-03T03:25:04.239Z,4.45
2018-10-03T03:26:14.267Z,4.43
2018-10-03T03:27:24.299Z,4.31
2018-10-03T03:28:34.347Z,4.36
2018-10-03T03:29:44.128Z,4.49
2018-10-03T03:30:54.160Z,4.46
2018-10-03T03:32:04.216Z,4.49
2018-10-03T03:33:14.262Z,4.42
2018-10-03T03:34:24.296Z,4.53
2018-10-03T03:35:34.349Z,4.48
2018-10-03T03:36:44.105Z,4.46
2018-10-03T03:37:53.863Z,4.53
2018-10-03T03:39:03.904Z,4.43
2018-10-03T03:40:13.148Z,4.58
2018-10-03T03:41:22.917Z,4.57
2018-10-03T03:42:32.674Z,4.53
2018-10-03T03:43:42.703Z,4.43
2018-10-03T03:44:52.740Z,4.49
2018-10-03T03:46:02.254Z,4.5
2018-10-03T03:47:12.020Z,4.5
2018-10-03T03:48:21.784Z,4.5
2018-10-03T03:49:31.829Z,4.5
2018-10-03T03:50:41.594Z,4.48
2018-10-03T03:51:51.102Z,4.5
2018-10-03T03:53:01.141Z,4.46
2018-10-03T03:54:11.184Z,4.49
2018-10-03T03:55:20.700Z,4.43
2018-10-03T03:56:30.726Z,4.39
2018-10-03T03:57:40.501Z,4.48
2018-10-03T03:58:50.284Z,4.48
2018-10-03T04:00:00.048Z,4.49
2018-10-03T04:01:10.147Z,4.5
2018-10-03T04:02:20.190Z,4.43
2018-10-03T04:03:30.224Z,4.52
2018-10-03T04:04:39.723Z,4.52
2018-10-03T04:05:49.492Z,4.49
2018-10-03T04:06:59.265Z,4.53
2018-10-03T04:08:09.301Z,4.5
2018-10-03T04:09:19.067Z,4.43
2018-10-03T04:10:29.125Z,4.43
2018-10-03T04:11:38.894Z,4.32
2018-10-03T04:12:48.946Z,4.38
2018-10-03T04:13:58.705Z,4.36
2018-10-03T04:15:08.765Z,4.28
2018-10-03T04:16:18.529Z,4.24
2018-10-03T04:17:28.572Z,4.25
2018-10-03T04:18:38.070Z,4.2
2018-10-03T04:19:47.829Z,4.09
2018-10-03T04:20:57.859Z,4.12
2018-10-03T04:22:07.888Z,4
2018-10-03T04:23:17.655Z,3.94
2018-10-03T04:24:27.684Z,3.89
2018-10-03T04:25:37.444Z,3.91
2018-10-03T04:26:47.493Z,3.86
2018-10-03T04:27:57.256Z,3.84
2018-10-03T04:29:07.281Z,3.78
2018-10-03T04:30:17.319Z,3.76
2018-10-03T04:31:27.402Z,3.74
2018-10-03T04:32:37.435Z,3.77
2018-10-03T04:33:47.502Z,3.67
2018-10-03T04:34:57.539Z,3.59
2018-10-03T04:36:07.029Z,3.58
2018-10-03T04:37:17.064Z,3.43
2018-10-03T04:38:27.092Z,3.37
2018-10-03T04:39:36.893Z,3.29
2018-10-03T04:40:46.927Z,3.18
2018-10-03T04:41:56.694Z,3.16
2018-10-03T04:43:06.797Z,3.19
2018-10-03T04:44:16.826Z,3.15
2018-10-03T04:45:26.630Z,3.03
2018-10-03T04:46:36.673Z,3.05
2018-10-03T04:47:46.697Z,3
2018-10-03T04:48:56.596Z,2.98
2018-10-03T04:50:06.699Z,2.94
2018-10-03T04:51:16.724Z,2.9
2018-10-03T04:52:26.753Z,2.88
2018-10-03T04:53:36.777Z,2.88
2018-10-03T04:54:46.587Z,2.83
2018-10-03T04:55:56.615Z,2.87
2018-10-03T04:57:06.379Z,2.8
2018-10-03T04:58:16.401Z,2.76
2018-10-03T04:59:25.900Z,2.76
2018-10-03T05:00:35.720Z,2.75
2018-10-03T05:01:45.492Z,2.65
2018-10-03T05:02:55.514Z,2.62
2018-10-03T05:04:05.548Z,2.61
2018-10-03T05:05:15.038Z,2.57
2018-10-03T05:06:24.579Z,2.61
2018-10-03T05:07:34.344Z,2.47
2018-10-03T05:08:44.369Z,2.51
2018-10-03T05:09:54.407Z,2.46
2018-10-03T05:11:04.166Z,2.46
2018-10-03T05:12:14.119Z,2.44
2018-10-03T05:13:23.610Z,2.37
2018-10-03T05:14:33.104Z,2.37
2018-10-03T05:15:43.127Z,2.34
2018-10-03T05:16:52.878Z,2.34
2018-10-03T05:18:02.684Z,2.34
2018-10-03T05:19:12.441Z,2.26
2018-10-03T05:20:22.473Z,2.19
2018-10-03T05:21:31.703Z,2.26
2018-10-03T05:22:41.464Z,2.25
2018-10-03T05:23:51.550Z,2.33
2018-10-03T05:25:01.585Z,2.39
2018-10-03T05:26:10.806Z,2.36
2018-10-03T05:27:20.563Z,2.37
2018-10-03T05:28:30.316Z,2.41
2018-10-03T05:29:40.071Z,2.34
2018-10-03T05:30:49.832Z,2.36
2018-10-03T05:31:59.320Z,2.34
2018-10-03T05:33:09.188Z,2.39
2018-10-03T05:34:19.297Z,2.34
2018-10-03T05:35:29.110Z,2.41
2018-10-03T05:36:38.878Z,2.39
2018-10-03T05:37:48.896Z,2.41
2018-10-03T05:38:58.918Z,2.54
2018-10-03T05:40:08.677Z,2.5
2018-10-03T05:41:18.214Z,2.54
2018-10-03T05:42:27.981Z,2.52
2018-10-03T05:43:37.739Z,2.51
2018-10-03T05:44:47.759Z,2.5
2018-10-03T05:45:57.792Z,2.5
2018-10-03T05:47:07.608Z,2.5
2018-10-03T05:48:17.767Z,2.52
2018-10-03T05:49:27.982Z,2.61
2018-10-03T05:50:38.008Z,2.7
2018-10-03T05:51:47.776Z,2.75
2018-10-03T05:52:57.849Z,2.75
2018-10-03T05:54:07.876Z,2.88
2018-10-03T05:55:17.907Z,2.93
2018-10-03T05:56:27.940Z,2.93
2018-10-03T05:57:37.964Z,2.93
2018-10-03T05:58:47.514Z,2.85
2018-10-03T05:59:57.540Z,3.01
2018-10-03T06:01:07.032Z,2.91
2018-10-03T06:02:17.060Z,2.88
2018-10-03T06:03:27.081Z,2.94
2018-10-03T06:04:36.891Z,3.08
2018-10-03T06:05:46.653Z,3.11
2018-10-03T06:06:56.678Z,2.95
2018-10-03T06:08:06.439Z,3
2018-10-03T06:09:16.196Z,2.95
2018-10-03T06:10:26.338Z,2.97
2018-10-03T06:11:36.359Z,2.95
2018-10-03T06:12:46.117Z,2.95
2018-10-03T06:13:56.156Z,2.9
2018-10-03T06:15:06.188Z,3
2018-10-03T06:16:16.014Z,2.94
2018-10-03T06:17:26.482Z,2.91
2018-10-03T06:18:36.769Z,2.9
2018-10-03T06:19:46.783Z,2.9
2018-10-03T06:20:56.270Z,2.76
2018-10-03T06:22:06.355Z,2.73
2018-10-03T06:23:16.384Z,2.65
2018-10-03T06:24:26.465Z,2.64
2018-10-03T06:25:36.498Z,2.62
2018-10-03T06:26:46.542Z,2.62
2018-10-03T06:27:56.932Z,2.58
2018-10-03T06:29:06.514Z,2.69
2018-10-03T06:30:16.537Z,2.65
2018-10-03T06:31:26.558Z,2.59
2018-10-03T06:32:36.039Z,2.58
2018-10-03T06:33:45.841Z,2.62
2018-10-03T06:34:55.334Z,2.61
2018-10-03T06:36:04.830Z,2.64
2018-10-03T06:37:14.583Z,2.69
2018-10-03T06:38:24.614Z,2.73
2018-10-03T06:39:34.758Z,2.82
2018-10-03T06:40:44.846Z,2.85
2018-10-03T06:41:54.728Z,2.88
2018-10-03T06:43:05.034Z,2.91
2018-10-03T06:44:15.331Z,2.9
2018-10-03T06:45:25.557Z,3.03
2018-10-03T06:46:35.698Z,3.01
2018-10-03T06:47:45.449Z,3.03
2018-10-03T06:48:55.479Z,3.13
2018-10-03T06:50:05.522Z,3.19
2018-10-03T06:51:15.599Z,3.21
2018-10-03T06:52:25.705Z,3.33
2018-10-03T06:53:35.723Z,3.3
2018-10-03T06:54:45.477Z,3.46
2018-10-03T06:55:55.507Z,3.4
2018-10-03T06:57:05.200Z,3.45
2018-10-03T06:58:15.163Z,3.56
2018-10-03T06:59:25.206Z,3.7
2018-10-03T07:00:35.235Z,3.7
2018-10-03T07:01:45.002Z,3.71
2018-10-03T07:02:54.813Z,3.77
2018-10-03T07:04:04.850Z,3.74
2018-10-03T07:05:14.875Z,3.82
2018-10-03T07:06:24.898Z,3.88
2018-10-03T07:07:34.664Z,3.96
2018-10-03T07:08:44.198Z,4.02
2018-10-03T07:09:54.224Z,4.06
2018-10-03T07:11:04.260Z,4.1
2018-10-03T07:12:14.288Z,4.12
2018-10-03T07:13:23.781Z,4.1
2018-10-03T07:14:33.541Z,4.25
2018-10-03T07:15:43.608Z,4.24
2018-10-03T07:16:53.636Z,4.3
2018-10-03T07:18:03.675Z,4.32
2018-10-03T07:19:13.696Z,4.27
2018-10-03T07:20:23.720Z,4.34
2018-10-03T07:21:33.478Z,4.38
2018-10-03T07:22:43.514Z,4.4
2018-10-03T07:23:53.054Z,4.31
2018-10-03T07:25:02.557Z,4.3
2018-10-03T07:26:12.828Z,4.34
2018-10-03T07:27:23.052Z,4.3
2018-10-03T07:28:32.550Z,4.3
2018-10-03T07:29:42.040Z,4.3
2018-10-03T07:30:52.066Z,4.25
2018-10-03T07:32:02.153Z,4.25
2018-10-03T07:33:11.372Z,4.27
2018-10-03T07:34:21.402Z,4.27
2018-10-03T07:35:31.154Z,4.36
2018-10-03T07:36:40.913Z,4.31
2018-10-03T07:37:50.668Z,4.43
2018-10-03T07:39:00.692Z,4.45
2018-10-03T07:40:10.471Z,4.5
2018-10-03T07:41:20.231Z,4.45
2018-10-03T07:42:29.455Z,4.52
2018-10-03T07:43:39.265Z,4.5
2018-10-03T07:44:48.755Z,4.63
2018-10-03T07:45:58.249Z,4.57
2018-10-03T07:47:08.272Z,4.71
2018-10-03T07:48:18.032Z,4.76
2018-10-03T07:49:28.117Z,4.74
2018-10-03T07:50:37.881Z,4.79
2018-10-03T07:51:47.644Z,4.86
2018-10-03T07:52:57.136Z,5.05
2018-10-03T07:54:06.902Z,5.07
2018-10-03T07:55:16.768Z,5.1
2018-10-03T07:56:26.686Z,5.08
2018-10-03T07:57:36.714Z,5.12
2018-10-03T07:58:46.838Z,5.18
2018-10-03T07:59:56.956Z,5.22
2018-10-03T08:01:06.768Z,5.16
2018-10-03T08:02:16.530Z,5.22
2018-10-03T08:03:26.559Z,5.34
2018-10-03T08:04:36.310Z,5.4
2018-10-03T08:05:46.129Z,5.4
2018-10-03T08:06:55.886Z,5.46
2018-10-03T08:08:05.693Z,5.52
2018-10-03T08:09:15.725Z,5.54
2018-10-03T08:10:25.753Z,5.64
2018-10-03T08:11:35.781Z,5.65
2018-10-03T08:12:45.858Z,5.73
2018-10-03T08:13:55.891Z,5.76
2018-10-03T08:15:05.415Z,5.79
2018-10-03T08:16:15.458Z,5.83
2018-10-03T08:17:25.644Z,5.9
2018-10-03T08:18:36.144Z,5.98
2018-10-03T08:19:46.174Z,6.05
2018-10-03T08:20:55.930Z,6.12
2018-10-03T08:22:05.965Z,6.13
2018-10-03T08:23:16.002Z,6.12
2018-10-03T08:24:25.638Z,6.2
2018-10-03T08:25:35.908Z,6.38
2018-10-03T08:26:45.399Z,6.34
2018-10-03T08:27:55.157Z,6.41
2018-10-03T08:29:05.190Z,6.36
2018-10-03T08:30:15.159Z,6.47
2018-10-03T08:31:25.207Z,6.53
2018-10-03T08:32:35.767Z,6.59
2018-10-03T08:33:45.786Z,6.59
2018-10-03T08:34:55.549Z,6.62
2018-10-03T08:36:05.365Z,6.74
2018-10-03T08:37:15.388Z,6.78
2018-10-03T08:38:25.145Z,6.82
2018-10-03T08:39:35.045Z,6.9
2018-10-03T08:40:44.576Z,6.86
2018-10-03T08:41:54.678Z,6.93
2018-10-03T08:43:04.448Z,6.86
2018-10-03T08:44:14.492Z,6.77
2018-10-03T08:45:23.738Z,6.85
2018-10-03T08:46:33.708Z,6.82
2018-10-03T08:47:43.532Z,6.93
2018-10-03T08:48:52.756Z,6.92
2018-10-03T08:50:02.517Z,6.96
2018-10-03T08:51:12.017Z,7.1
2018-10-03T08:52:21.783Z,7.03
2018-10-03T08:53:31.867Z,7.07
2018-10-03T08:54:41.358Z,7.07
2018-10-03T08:55:51.130Z,7.1
2018-10-03T08:57:00.629Z,7.13
2018-10-03T08:58:11.077Z,7.18
2018-10-03T08:59:21.273Z,7.21
2018-10-03T09:00:31.037Z,7.21
2018-10-03T09:01:41.078Z,7.14
2018-10-03T09:02:50.850Z,7.15
2018-10-03T09:04:00.606Z,7.21
2018-10-03T09:05:10.103Z,7.19
2018-10-03T09:06:19.870Z,7
2018-10-03T09:07:29.635Z,6.97
2018-10-03T09:08:39.394Z,7.11
2018-10-03T09:09:49.162Z,7.1
2018-10-03T09:10:58.973Z,7.13
2018-10-03T09:12:08.736Z,7.03
2018-10-03T09:13:18.820Z,7.04
2018-10-03T09:14:28.584Z,7.01
2018-10-03T09:15:38.628Z,7.1
2018-10-03T09:16:48.769Z,7.15
2018-10-03T09:17:58.539Z,7.21
2018-10-03T09:19:08.570Z,7.19
2018-10-03T09:20:18.609Z,7.28
2018-10-03T09:21:28.857Z,7.23
2018-10-03T09:22:38.935Z,7.26
2018-10-03T09:23:48.700Z,7.32
2018-10-03T09:24:58.728Z,7.4
2018-10-03T09:26:08.491Z,7.43
2018-10-03T09:27:18.530Z,7.39
2018-10-03T09:28:28.986Z,7.5
2018-10-03T09:29:39.053Z,7.51
2018-10-03T09:30:49.138Z,7.59
2018-10-03T09:31:58.635Z,7.51
2018-10-03T09:33:08.398Z,7.66
2018-10-03T09:34:18.479Z,7.61
2018-10-03T09:35:28.513Z,7.7
2018-10-03T09:36:38.559Z,7.74
2018-10-03T09:37:48.322Z,7.78
2018-10-03T09:38:58.093Z,7.87
2018-10-03T09:40:07.901Z,7.81
2018-10-03T09:41:17.669Z,7.87
2018-10-03T09:42:27.438Z,7.88
2018-10-03T09:43:37.196Z,7.9
2018-10-03T09:44:47.240Z,7.93
2018-10-03T09:45:57.003Z,8.01
2018-10-03T09:47:07.057Z,8.01
2018-10-03T09:48:16.549Z,8.03
2018-10-03T09:49:25.784Z,8.01
2018-10-03T09:50:35.277Z,8.01
2018-10-03T09:51:45.368Z,8.11
2018-10-03T09:52:55.135Z,8.08
2018-10-03T09:54:04.915Z,8.21
2018-10-03T09:55:14.671Z,8.17
2018-10-03T09:56:24.434Z,8.26
2018-10-03T09:57:33.714Z,8.21
2018-10-03T09:58:43.751Z,8.32
2018-10-03T09:59:53.790Z,8.36
2018-10-03T10:01:03.804Z,8.49
2018-10-03T10:02:13.583Z,8.52
2018-10-03T10:03:23.403Z,8.49
2018-10-03T10:04:33.168Z,8.56
2018-10-03T10:05:42.928Z,8.68
2018-10-03T10:06:52.961Z,8.69
2018-10-03T10:08:02.724Z,8.66
2018-10-03T10:09:12.482Z,8.74
2018-10-03T10:10:22.316Z,8.75
2018-10-03T10:11:32.310Z,8.82
2018-10-03T10:12:43.433Z,8.71
2018-10-03T10:13:53.462Z,8.78
2018-10-03T10:15:03.497Z,8.71
2018-10-03T10:16:12.993Z,8.77
2018-10-03T10:17:23.027Z,8.77
2018-10-03T10:18:33.063Z,8.82
2018-10-03T10:19:42.557Z,8.84
2018-10-03T10:20:52.647Z,8.95
2018-10-03T10:22:02.548Z,8.95
2018-10-03T10:23:12.308Z,8.99
2018-10-03T10:24:22.344Z,9.02
2018-10-03T10:25:32.124Z,9.05
2018-10-03T10:26:42.206Z,9.03
2018-10-03T10:27:51.969Z,9.18
2018-10-03T10:29:01.998Z,9.21
2018-10-03T10:30:11.760Z,9.26
2018-10-03T10:31:21.800Z,9.37
2018-10-03T10:32:32.353Z,9.34
2018-10-03T10:33:42.320Z,9.37
2018-10-03T10:34:52.353Z,9.49
2018-10-03T10:36:01.913Z,9.51
2018-10-03T10:37:11.690Z,9.52
2018-10-03T10:38:21.506Z,9.52
2018-10-03T10:39:31.562Z,9.67
2018-10-03T10:40:42.637Z,9.64
2018-10-03T10:41:52.010Z,9.73
2018-10-03T10:43:01.779Z,9.82
2018-10-03T10:44:11.590Z,9.88
2018-10-03T10:45:21.624Z,9.92
2018-10-03T10:46:31.182Z,9.95
2018-10-03T10:47:41.446Z,10.18
2018-10-03T10:48:50.676Z,10.36
2018-10-03T10:50:00.224Z,10.55
2018-10-03T10:51:10.064Z,11.05
2018-10-03T10:52:19.834Z,11.43
2018-10-03T10:53:29.872Z,11.71
2018-10-03T10:54:39.902Z,11.96
2018-10-03T10:55:49.721Z,12.36
2018-10-03T10:56:59.482Z,12.7
2018-10-03T10:58:09.251Z,12.84
2018-10-03T10:59:19.284Z,12.84
2018-10-03T11:00:29.059Z,12.99
2018-10-03T11:01:39.156Z,13.39
2018-10-03T11:02:49.197Z,13.37
2018-10-03T11:03:59.232Z,13.82
2018-10-03T11:05:09.005Z,14.3
2018-10-03T11:06:19.008Z,14.74
2018-10-03T11:07:29.455Z,15.32
2018-10-03T11:08:39.224Z,15.63
2018-10-03T11:09:48.999Z,15.73
2018-10-03T11:10:58.777Z,15.69
2018-10-03T11:12:08.540Z,15.75
2018-10-03T11:13:18.093Z,15.92
2018-10-03T11:14:28.136Z,16.26
2018-10-03T11:15:38.449Z,16.64
2018-10-03T11:16:48.963Z,16.84
2018-10-03T11:17:58.608Z,16.98
2018-10-03T11:19:08.426Z,17.2
2018-10-03T11:20:17.975Z,17.5
2018-10-03T11:21:27.489Z,17.68
2018-10-03T11:22:37.001Z,18.08
2018-10-03T11:23:47.178Z,18.58
2018-10-03T11:24:58.726Z,18.86
2018-10-03T11:26:08.712Z,19.08
2018-10-03T11:27:18.752Z,19.08
2018-10-03T11:28:28.540Z,19.52
2018-10-03T11:29:38.326Z,19.67
2018-10-03T11:30:48.426Z,19.52
2018-10-03T11:31:58.513Z,19.49
2018-10-03T11:33:08.526Z,19.82
2018-10-03T11:34:18.310Z,20.11
2018-10-03T11:35:28.358Z,20.27
2018-10-03T11:36:38.182Z,19.79
2018-10-03T11:37:47.955Z,19.85
2018-10-03T11:38:57.191Z,19.96
2018-10-03T11:40:06.463Z,20.26
2018-10-03T11:41:16.240Z,20.3
2018-10-03T11:42:26.072Z,20.75
2018-10-03T11:43:35.848Z,21.25
2018-10-03T11:44:45.651Z,21.54
2018-10-03T11:45:55.438Z,21.56
2018-10-03T11:47:05.215Z,21.47
2018-10-03T11:48:15.315Z,21.75
2018-10-03T11:49:25.390Z,21.75
2018-10-03T11:50:35.521Z,21.29
2018-10-03T11:51:45.508Z,20.67
2018-10-03T11:52:55.566Z,20.74
2018-10-03T11:54:05.675Z,21.08
2018-10-03T11:55:15.457Z,20.78
2018-10-03T11:56:25.240Z,21.37
2018-10-03T11:57:35.018Z,21.48
2018-10-03T11:58:45.067Z,21.13
2018-10-03T11:59:54.897Z,21.08
2018-10-03T12:01:04.413Z,21.68
2018-10-03T12:02:14.471Z,22.28
2018-10-03T12:03:24.717Z,22.61
2018-10-03T12:04:35.023Z,22.52
2018-10-03T12:05:44.862Z,22.41
2018-10-03T12:06:54.910Z,22.46
2018-10-03T12:08:04.969Z,22.28
2018-10-03T12:09:14.535Z,22.08
2018-10-03T12:10:23.833Z,21.8
2018-10-03T12:11:33.929Z,22.46
2018-10-03T12:12:43.974Z,22.52
2018-10-03T12:13:53.955Z,23.08
2018-10-03T12:15:03.741Z,23.14
2018-10-03T12:16:13.792Z,22.91
2018-10-03T12:17:23.624Z,22.78
2018-10-03T12:18:33.668Z,23.13
2018-10-03T12:19:43.180Z,23.55
2018-10-03T12:20:53.016Z,23.21
2018-10-03T12:22:02.531Z,23.62
2018-10-03T12:23:12.686Z,24.13
2018-10-03T12:24:22.461Z,23.73
2018-10-03T12:25:31.980Z,23.95
2018-10-03T12:26:41.223Z,24.19
2018-10-03T12:27:51.272Z,24.07
2018-10-03T12:29:01.601Z,23.82
2018-10-03T12:30:11.120Z,24.26
2018-10-03T12:31:21.174Z,24.79
2018-10-03T12:32:30.689Z,24.58
2018-10-03T12:33:40.579Z,23.82
2018-10-03T12:34:50.534Z,22.93
2018-10-03T12:36:00.585Z,22.93
2018-10-03T12:37:10.634Z,23.39
2018-10-03T12:38:20.414Z,23.89
2018-10-03T12:39:30.205Z,23.04
2018-10-03T12:40:40.309Z,22.21
2018-10-03T12:41:50.086Z,22.44
2018-10-03T12:43:00.136Z,22.7
2018-10-03T12:44:09.650Z,22.92
2018-10-03T12:45:19.898Z,22.8
2018-10-03T12:46:29.995Z,22.53
2018-10-03T12:47:40.038Z,21.65
2018-10-03T12:48:50.093Z,21.14
2018-10-03T12:50:00.134Z,21.1
2018-10-03T12:51:09.646Z,20.7
2018-10-03T12:52:19.228Z,20.18
2018-10-03T12:53:29.282Z,19.79
2018-10-03T12:54:39.511Z,19.44
2018-10-03T12:55:49.771Z,18.91
2018-10-03T12:56:59.547Z,18.27
2018-10-03T12:58:09.641Z,17.6
2018-10-03T12:59:19.146Z,16.91
2018-10-03T13:00:28.923Z,16.68
2018-10-03T13:01:38.974Z,16.46
2018-10-03T13:02:48.746Z,16.05
2018-10-03T13:03:58.573Z,15.59
2018-10-03T13:05:08.089Z,15.35
2018-10-03T13:06:18.127Z,15.15
2018-10-03T13:07:28.169Z,14.92
2018-10-03T13:08:38.214Z,14.89
2018-10-03T13:09:47.985Z,14.92
2018-10-03T13:10:57.488Z,14.86
2018-10-03T13:12:06.724Z,14.59
2018-10-03T13:13:16.780Z,14.58
2018-10-03T13:14:26.561Z,14.48
2018-10-03T13:15:36.334Z,14.43
2018-10-03T13:16:46.105Z,14.11
2018-10-03T13:17:56.145Z,13.86
2018-10-03T13:19:05.655Z,13.67
2018-10-03T13:20:15.690Z,13.4
2018-10-03T13:21:25.467Z,13.2
2018-10-03T13:22:34.710Z,13.03
2018-10-03T13:23:44.215Z,13.09
2018-10-03T13:24:54.249Z,13.03
2018-10-03T13:26:03.760Z,12.83
2018-10-03T13:27:13.808Z,12.65
2018-10-03T13:28:23.582Z,12.51
2018-10-03T13:29:33.623Z,12.33
2018-10-03T13:30:43.827Z,12.26
2018-10-03T13:31:53.856Z,12.26
2018-10-03T13:33:03.682Z,12.28
2018-10-03T13:34:13.450Z,12.29
2018-10-03T13:35:23.224Z,12.23
2018-10-03T13:36:33.261Z,12.21
2018-10-03T13:37:43.301Z,12.11
2018-10-03T13:38:52.850Z,11.99
2018-10-03T13:40:02.891Z,11.74
2018-10-03T13:41:12.127Z,11.81
2018-10-03T13:42:22.264Z,11.74
2018-10-03T13:43:32.359Z,11.55
2018-10-03T13:44:42.176Z,11.45
2018-10-03T13:45:52.216Z,11.49
2018-10-03T13:47:01.991Z,11.56
2018-10-03T13:48:11.495Z,11.52
2018-10-03T13:49:21.270Z,11.53
2018-10-03T13:50:31.369Z,11.48
2018-10-03T13:51:41.165Z,11.44
2018-10-03T13:52:50.931Z,11.41
2018-10-03T13:54:00.701Z,11.25
2018-10-03T13:55:10.224Z,11.23
2018-10-03T13:56:19.778Z,11.2
2018-10-03T13:57:29.554Z,11.2
2018-10-03T13:58:39.326Z,11.2
2018-10-03T13:59:48.827Z,11.26
2018-10-03T14:00:58.863Z,11.27
2018-10-03T14:02:08.410Z,11.27
2018-10-03T14:03:18.175Z,11.3
2018-10-03T14:04:28.216Z,11.19
2018-10-03T14:05:38.250Z,11.07
2018-10-03T14:06:48.283Z,11.08
2018-10-03T14:07:58.097Z,10.97
2018-10-03T14:09:07.864Z,10.82
2018-10-03T14:10:17.635Z,10.82
2018-10-03T14:11:27.666Z,10.67
2018-10-03T14:12:37.701Z,10.75
2018-10-03T14:13:47.526Z,10.72
2018-10-03T14:14:57.295Z,10.82
2018-10-03T14:16:07.063Z,10.87
2018-10-03T14:17:16.825Z,10.8
2018-10-03T14:18:26.823Z,10.82
2018-10-03T14:19:36.792Z,10.79
2018-10-03T14:20:46.561Z,10.86
2018-10-03T14:21:56.611Z,10.87
2018-10-03T14:23:06.648Z,10.95
2018-10-03T14:24:16.456Z,11.04
2018-10-03T14:25:26.672Z,11.04
2018-10-03T14:26:36.760Z,11.01
2018-10-03T14:27:46.527Z,11
2018-10-03T14:28:56.289Z,11.02
2018-10-03T14:30:06.385Z,11.07
2018-10-03T14:31:16.434Z,11.4
2018-10-03T14:32:26.211Z,11.52
2018-10-03T14:33:36.346Z,11.86
2018-10-03T14:34:46.114Z,11.97
2018-10-03T14:35:55.879Z,12.08
2018-10-03T14:37:05.700Z,11.99
2018-10-03T14:38:15.743Z,11.91
2018-10-03T14:39:25.790Z,11.88
2018-10-03T14:40:35.288Z,12
2018-10-03T14:41:44.838Z,11.97
2018-10-03T14:42:54.651Z,12.08
2018-10-03T14:44:04.173Z,12.23
2018-10-03T14:45:13.945Z,12.4
2018-10-03T14:46:23.463Z,12.3
2018-10-03T14:47:33.228Z,12.28
2018-10-03T14:48:43.044Z,12.11
2018-10-03T14:49:52.814Z,11.86
2018-10-03T14:51:02.851Z,12
2018-10-03T14:52:13.260Z,12.15
2018-10-03T14:53:23.597Z,11.86
2018-10-03T14:54:33.420Z,11.91
2018-10-03T14:55:43.459Z,11.77
2018-10-03T14:56:53.502Z,11.6
2018-10-03T14:58:03.272Z,11.52
2018-10-03T14:59:13.041Z,11.34
2018-10-03T15:00:23.088Z,11.2
2018-10-03T15:01:32.937Z,11.01
2018-10-03T15:02:42.949Z,10.9
2018-10-03T15:03:53.003Z,10.82
2018-10-03T15:05:02.766Z,11.1
2018-10-03T15:06:12.314Z,11.6
2018-10-03T15:07:22.082Z,11.99
2018-10-03T15:08:32.121Z,12.3
2018-10-03T15:09:41.621Z,12.58
2018-10-03T15:10:51.653Z,12.81
2018-10-03T15:12:01.474Z,12.95
2018-10-03T15:13:11.511Z,13.17
2018-10-03T15:14:21.277Z,13.09
2018-10-03T15:15:30.508Z,12.91
2018-10-03T15:16:40.279Z,12.99
2018-10-03T15:17:50.320Z,12.68
2018-10-03T15:19:00.094Z,12.18
2018-10-03T15:20:09.871Z,12.05
2018-10-03T15:21:19.922Z,12.45
2018-10-03T15:22:29.692Z,12.36
2018-10-03T15:23:39.509Z,11.89
2018-10-03T15:24:49.280Z,11.49